Time;durP1;ratioP1;P1;durP2;ratioP2;P2;SDS_P1;SDS_P2;PMS_P1;PMS_P2;Temp;Humidity;BMP_temperature;BMP_pressure;BME280_temperature;BME280_humidity;BME280_pressure;Samples;Min_cycle;Max_cycle;Signal;HPM_P1;HPM_P2
2021/06/12 05:07:43;;;;;;;4.00;2.75;;;;;;;;;;12983936;22;20078;-85
2021/06/12 05:12:44;;;;;;;5.00;2.92;;;;;;;;;;12935443;23;20061;-85
2021/06/12 05:17:48;;;;;;;5.43;3.72;;;;;;;;;;12943181;22;20000;-84
2021/06/12 05:22:51;;;;;;;5.32;3.55;;;;;;;;;;12935609;23;20015;-85
2021/06/12 05:27:52;;;;;;;4.57;3.80;;;;;;;;;;12934221;22;20015;-85
2021/06/12 05:32:55;;;;;;;4.72;3.47;;;;;;;;;;12958248;23;20014;-85
2021/06/12 05:37:56;;;;;;;8.27;4.32;;;;;;;;;;12927821;22;20000;-85
2021/06/12 05:42:57;;;;;;;6.03;4.03;;;;;;;;;;12926247;23;20086;-85
2021/06/12 05:47:59;;;;;;;8.40;4.38;;;;;;;;;;12925062;22;20020;-85
2021/06/12 05:53:00;;;;;;;5.38;4.38;;;;;;;;;;12925562;23;20459;-85
2021/06/12 05:58:01;;;;;;;8.27;5.15;;;;;;;;;;12927407;22;20060;-85
2021/06/12 06:03:02;;;;;;;6.28;3.70;;;;;;;;;;12926005;23;20030;-84
2021/06/12 06:08:03;;;;;;;5.82;3.70;;;;;;;;;;12929801;22;20043;-85
2021/06/12 06:13:05;;;;;;;7.47;4.60;;;;;;;;;;12944759;23;20068;-85
2021/06/12 06:18:06;;;;;;;6.75;4.82;;;;;;;;;;12954096;22;20008;-85
2021/06/12 06:23:07;;;;;;;6.85;5.47;;;;;;;;;;12954815;22;20040;-85
2021/06/12 06:28:08;;;;;;;6.50;4.75;;;;;;;;;;12954905;22;20023;-85
2021/06/12 06:33:09;;;;;;;7.78;6.95;;;;;;;;;;12955334;22;20035;-85
2021/06/12 06:38:10;;;;;;;8.18;6.65;;;;;;;;;;12954828;22;20013;-86
2021/06/12 06:43:12;;;;;;;6.20;5.38;;;;;;;;;;12946984;22;20064;-85
2021/06/12 06:48:15;;;;;;;8.90;6.20;;;;;;;;;;12933781;22;20018;-85
2021/06/12 06:53:17;;;;;;;7.47;6.38;;;;;;;;;;12938103;23;20008;-86
2021/06/12 06:58:17;;;;;;;9.45;7.22;;;;;;;;;;12948724;22;20012;-85
2021/06/12 07:03:18;;;;;;;5.30;3.03;;;;;;;;;;12932242;23;20023;-82
2021/06/12 07:08:20;;;;;;;6.40;4.30;;;;;;;;;;12918812;22;20015;-86
2021/06/12 07:13:22;;;;;;;5.00;4.10;;;;;;;;;;12988387;22;20078;-82
2021/06/12 07:18:22;;;;;;;7.78;5.03;;;;;;;;;;12987537;22;20008;-81
2021/06/12 07:23:24;;;;;;;7.30;5.63;;;;;;;;;;12987509;22;20003;-81
2021/06/12 07:28:25;;;;;;;5.43;4.38;;;;;;;;;;13016819;22;20003;-81
2021/06/12 07:33:26;;;;;;;8.32;6.07;;;;;;;;;;12992566;22;20007;-82
2021/06/12 07:38:27;;;;;;;8.15;6.63;;;;;;;;;;12994847;22;19984;-82
2021/06/12 07:43:27;;;;;;;7.60;6.80;;;;;;;;;;13001486;22;20008;-82
2021/06/12 07:48:28;;;;;;;8.30;5.50;;;;;;;;;;13038635;22;20003;-83
2021/06/12 07:53:29;;;;;;;6.22;5.63;;;;;;;;;;13007937;22;20008;-83
2021/06/12 07:58:30;;;;;;;6.60;5.93;;;;;;;;;;13003801;22;20007;-82
2021/06/12 08:03:31;;;;;;;7.60;6.55;;;;;;;;;;13010914;22;20012;-82
2021/06/12 08:08:32;;;;;;;7.97;7.18;;;;;;;;;;13016295;22;20019;-81
2021/06/12 08:13:33;;;;;;;6.97;6.35;;;;;;;;;;13014625;22;20012;-82
2021/06/12 08:18:34;;;;;;;9.18;8.23;;;;;;;;;;13002098;22;20008;-80
2021/06/12 08:23:36;;;;;;;7.43;6.70;;;;;;;;;;12996171;22;20067;-82
2021/06/12 08:28:37;;;;;;;8.73;7.93;;;;;;;;;;12993735;22;20030;-81
2021/06/12 08:33:37;;;;;;;6.93;6.20;;;;;;;;;;12992377;22;20014;-82
2021/06/12 08:38:38;;;;;;;7.05;6.35;;;;;;;;;;12994237;22;20010;-81
2021/06/12 08:43:39;;;;;;;7.75;6.93;;;;;;;;;;12999818;22;20007;-81
2021/06/12 08:48:41;;;;;;;8.52;7.65;;;;;;;;;;12998051;22;20078;-81
2021/06/12 08:53:42;;;;;;;7.88;7.15;;;;;;;;;;12988825;22;20038;-82
2021/06/12 08:58:43;;;;;;;7.68;6.60;;;;;;;;;;12991307;22;20323;-82
2021/06/12 09:03:46;;;;;;;10.38;9.38;;;;;;;;;;12994473;22;20000;-83
2021/06/12 09:08:48;;;;;;;10.32;6.15;;;;;;;;;;12992191;22;20011;-80
2021/06/12 09:13:51;;;;;;;8.52;7.82;;;;;;;;;;12986758;22;20449;-81
2021/06/12 09:18:53;;;;;;;9.27;8.35;;;;;;;;;;12985588;22;19994;-81
2021/06/12 09:23:54;;;;;;;7.47;6.68;;;;;;;;;;12989446;22;20063;-81
2021/06/12 09:28:56;;;;;;;9.07;8.25;;;;;;;;;;12989272;22;19999;-84
2021/06/12 09:33:56;;;;;;;8.30;7.50;;;;;;;;;;12992381;22;20009;-83
2021/06/12 09:39:05;;;;;;;8.50;7.80;;;;;;;;;;12990568;22;20086;-81
2021/06/12 09:44:06;;;;;;;8.23;7.43;;;;;;;;;;12995627;22;20068;-81
2021/06/12 09:49:09;;;;;;;8.30;7.45;;;;;;;;;;13008518;22;20014;-81
2021/06/12 09:54:09;;;;;;;8.73;7.93;;;;;;;;;;12987138;22;20026;-80
2021/06/12 09:59:18;;;;;;;7.90;7.10;;;;;;;;;;12994245;22;20068;-80
2021/06/12 10:04:20;;;;;;;7.07;6.38;;;;;;;;;;13016963;22;20336;-81
2021/06/12 10:09:21;;;;;;;7.97;7.18;;;;;;;;;;13003724;22;20012;-82
2021/06/12 10:14:23;;;;;;;7.95;7.25;;;;;;;;;;13004155;22;20019;-83
2021/06/12 10:19:24;;;;;;;6.85;6.15;;;;;;;;;;12999946;22;20058;-80
2021/06/12 10:24:25;;;;;;;8.60;5.38;;;;;;;;;;13001342;22;20048;-80
2021/06/12 10:29:27;;;;;;;13.10;7.63;;;;;;;;;;13010173;22;20059;-80
2021/06/12 10:34:29;;;;;;;10.48;6.93;;;;;;;;;;13014571;22;20027;-79
2021/06/12 10:39:33;;;;;;;10.90;5.95;;;;;;;;;;12996311;22;20004;-81
2021/06/12 10:44:34;;;;;;;9.57;7.15;;;;;;;;;;12989783;22;20003;-82
2021/06/12 10:49:35;;;;;;;10.38;7.25;;;;;;;;;;12993596;22;20069;-83
2021/06/12 10:54:37;;;;;;;8.00;6.65;;;;;;;;;;12997056;22;20011;-84
2021/06/12 10:59:38;;;;;;;7.43;5.57;;;;;;;;;;12997276;22;19999;-83
2021/06/12 11:04:46;;;;;;;9.15;5.18;;;;;;;;;;12999879;22;20395;-83
2021/06/12 11:09:46;;;;;;;10.18;4.32;;;;;;;;;;13001215;22;20026;-86
2021/06/12 11:14:58;;;;;;;10.77;6.32;;;;;;;;;;13002823;22;20063;-84
2021/06/12 11:19:59;;;;;;;7.95;5.20;;;;;;;;;;13003726;22;20004;-84
2021/06/12 11:25:09;;;;;;;4.75;2.83;;;;;;;;;;13004070;22;20391;-82
2021/06/12 11:30:19;;;;;;;5.65;3.00;;;;;;;;;;13034199;22;20423;-84
2021/06/12 11:35:39;;;;;;;5.10;3.40;;;;;;;;;;13010607;22;20016;-85
2021/06/12 11:40:50;;;;;;;5.95;2.65;;;;;;;;;;13008223;22;20012;-84
2021/06/12 11:45:50;;;;;;;3.50;3.20;;;;;;;;;;13010923;22;20017;-84
2021/06/12 11:51:12;;;;;;;7.32;3.10;;;;;;;;;;13010058;22;20008;-87
2021/06/12 11:56:13;;;;;;;7.50;4.72;;;;;;;;;;13026827;22;20031;-85
2021/06/12 12:01:57;;;;;;;5.85;2.75;;;;;;;;;;12999335;22;20026;-87
2021/06/12 12:13:03;;;;;;;6.55;3.42;;;;;;;;;;12888035;23;20020;-86
2021/06/12 12:18:48;;;;;;;7.03;3.55;;;;;;;;;;12843590;23;20391;-86
2021/06/12 13:49:41;;;;;;;26.95;8.43;;;;;;;;;;12992362;22;20018;-85
2021/06/12 13:55:13;;;;;;;8.80;4.18;;;;;;;;;;12968927;22;20012;-86
2021/06/12 14:00:54;;;;;;;12.05;4.82;;;;;;;;;;12720014;23;20167;-86
2021/06/12 14:17:55;;;;;;;5.60;2.73;;;;;;;;;;12643570;23;20510;-86
2021/06/12 14:46:32;;;;;;;8.15;2.97;;;;;;;;;;12992581;22;20008;-87
2021/06/12 15:03:42;;;;;;;5.77;2.87;;;;;;;;;;12618300;23;20423;-86
2021/06/12 15:09:37;;;;;;;5.55;2.25;;;;;;;;;;12553343;23;20017;-86
2021/06/12 15:21:08;;;;;;;7.03;2.22;;;;;;;;;;12501159;23;20019;-86
2021/06/12 15:55:27;;;;;;;7.20;2.80;;;;;;;;;;12565840;23;20022;-86
2021/06/12 16:01:07;;;;;;;4.15;2.10;;;;;;;;;;12543128;23;20339;-87
2021/06/12 16:23:48;;;;;;;3.25;2.00;;;;;;;;;;12424751;23;20090;-85
2021/06/12 16:29:40;;;;;;;8.77;5.93;;;;;;;;;;12381910;24;20008;-86
2021/06/12 16:46:49;;;;;;;5.27;2.93;;;;;;;;;;12267394;24;20009;-86
